Main page
METAR-TAF:

METAR-TAF

Airports :

Bergerac, France

Bergerac Dordogne Périgord Airport

latitude: 44-49N, longitude: 000-31E, elevation: 51 m

Current weather observation

The report was made 29 minutes ago, at 07:00 UTC
Wind 7 kt from the East
Temperature -1°C
Humidity 100%
Pressure 1014 hPa
Visibility: 5000 m
mist

METAR: LFBE 220700Z AUTO 08007KT 5000 BR NSC M01/M01 Q1014 NOSIG

Time: 08:29 (07:29 UTC)

Forecast

The report was made 2 hours and 29 minutes ago, at 05:00 UTC
Forecast valid from 22 at 06 UTC to 23 at 06 UTC
Wind 3 kt from variable directions
Visibility: 5000 m
mist
Probability 30% :
Temporary
from 22 at 06 UTC to 22 at 07 UTC
Visibility: 1000 m
patches of fog
Becoming
from 22 at 08 UTC to 22 at 10 UTC
Wind 10 kt from the Southeast
Visibility 10 km or more
no clouds below 1500 m and no cumulonimbus

TAF: LFBE 220500Z 2206/2306 VRB03KT 5000 BR NSC PROB30 TEMPO 2206/2207 1000 BCFG BECMG 2208/2210 13010KT CAVOK

Weather observations and forecasts of more than 4000 airports (METAR and TAF reports).

The available stations are represented by yellow and red dots on the map.

Hover mouse over dot to see the name of the station.

Then click to see weather observations and forecasts.

To change the map : click on the green buttons with a black cross to zoom in, on the green button with a dash to zoom out, or on the green arrows for adjacent maps.


METAR-TAF: